Terminal Aerodrome Forecast
Issued by NWS New Orleans/Baton Rouge, LA

Home | Current Version | Previous Version | Text Only | Print | Product List | Glossary On
Versions: 1 2 3 4 5 6 7 8 9 10 11 12 13 14 15 16 17 18 19 20 21 22 23 24
000
FTUS44 KLIX 152332
TAFNEW
TAF
KNEW 152332Z 1600/1624 VRB04KT P6SM VCTS FEW035CB SCT050 BKN250
     FM160030 17005KT P6SM FEW025 SCT250
     FM161000 VRB03KT P6SM FEW250
     FM161500 18009KT P6SM VCTS BKN035CB=

USA.gov is the U.S. government's official web portal to all federal, state and local government web resources and services.